Time;durP1;ratioP1;P1;durP2;ratioP2;P2;SDS_P1;SDS_P2;PMS_P1;PMS_P2;Temp;Humidity;BMP_temperature;BMP_pressure;BME280_temperature;BME280_humidity;BME280_pressure;Samples;Min_cycle;Max_cycle;Signal;HPM_P1;HPM_P2
2022/12/04 00:00:10;;;;;;;11.33;10.43;;;3.10;99.90;;;;;;5072494;28;20577;-68
2022/12/04 00:02:36;;;;;;;11.70;10.47;;;3.10;99.90;;;;;;5079650;28;20661;-66
2022/12/04 00:05:03;;;;;;;12.97;11.63;;;3.10;99.90;;;;;;5092759;28;20200;-66
2022/12/04 00:07:29;;;;;;;11.93;10.87;;;3.10;99.90;;;;;;5085675;28;20231;-66
2022/12/04 00:09:54;;;;;;;12.83;11.57;;;3.10;99.90;;;;;;5074063;28;20253;-66
2022/12/04 00:12:20;;;;;;;13.10;11.47;;;3.10;99.90;;;;;;5092670;28;20169;-67
2022/12/04 00:14:46;;;;;;;17.33;11.53;;;3.10;99.90;;;;;;5091977;28;20204;-66
2022/12/04 00:17:11;;;;;;;10.63;9.53;;;3.10;99.90;;;;;;5072197;28;20201;-67
2022/12/04 00:19:37;;;;;;;12.90;11.67;;;3.10;99.90;;;;;;5072570;28;20245;-67
2022/12/04 00:22:03;;;;;;;13.80;12.53;;;3.10;99.90;;;;;;5090674;28;20583;-67
2022/12/04 00:24:28;;;;;;;12.63;11.27;;;3.10;99.90;;;;;;5092444;28;20276;-66
2022/12/04 00:26:54;;;;;;;19.13;12.30;;;3.00;99.90;;;;;;5074013;28;20741;-67
2022/12/04 00:29:20;;;;;;;12.17;10.97;;;3.00;99.90;;;;;;5070751;28;20253;-66
2022/12/04 00:31:45;;;;;;;13.10;10.73;;;3.00;99.90;;;;;;5087465;28;20169;-67
2022/12/04 00:34:11;;;;;;;12.27;10.87;;;3.00;99.90;;;;;;5092233;28;20701;-67
2022/12/04 00:36:37;;;;;;;14.33;11.73;;;3.00;99.90;;;;;;5076817;28;20166;-67
2022/12/04 00:39:03;;;;;;;11.00;9.97;;;3.00;99.90;;;;;;5071854;28;20220;-67
2022/12/04 00:41:31;;;;;;;14.77;11.50;;;3.00;99.90;;;;;;5085225;28;20169;-66
2022/12/04 00:43:56;;;;;;;11.90;10.83;;;2.90;99.90;;;;;;5092163;28;20193;-67
2022/12/04 00:46:22;;;;;;;12.47;11.20;;;2.90;99.90;;;;;;5079189;28;20223;-67
2022/12/04 00:48:48;;;;;;;20.90;12.27;;;2.90;99.90;;;;;;5070504;28;20247;-67
2022/12/04 00:51:17;;;;;;;13.47;10.60;;;3.00;99.90;;;;;;5082574;28;20173;-67
2022/12/04 00:53:44;;;;;;;12.77;10.97;;;3.00;99.90;;;;;;5091943;28;20251;-67
2022/12/04 00:56:18;;;;;;;17.60;10.23;;;3.00;99.90;;;;;;5080991;28;20209;-67
2022/12/04 00:58:44;;;;;;;12.27;11.07;;;3.00;99.90;;;;;;5071815;28;20177;-67
2022/12/04 01:01:16;;;;;;;14.23;10.10;;;3.00;99.90;;;;;;5081755;28;20173;-67
2022/12/04 01:03:42;;;;;;;15.43;12.03;;;3.00;99.90;;;;;;5090640;28;20209;-67
2022/12/04 01:06:18;;;;;;;16.77;12.07;;;2.90;99.90;;;;;;5081192;28;20178;-67
2022/12/04 01:08:43;;;;;;;13.67;12.27;;;2.90;99.90;;;;;;5076896;28;20282;-67
2022/12/04 01:11:09;;;;;;;12.77;11.33;;;2.90;99.90;;;;;;5092821;28;20181;-68
2022/12/04 01:13:35;;;;;;;18.30;10.63;;;2.80;99.90;;;;;;5100151;28;20206;-67
2022/12/04 01:16:00;;;;;;;12.07;10.87;;;2.80;99.90;;;;;;5083030;28;20178;-68
2022/12/04 01:18:26;;;;;;;11.23;10.03;;;2.80;99.90;;;;;;5085465;28;20163;-67
2022/12/04 01:20:51;;;;;;;12.13;10.47;;;2.80;99.90;;;;;;5103735;28;20187;-68
2022/12/04 01:23:18;;;;;;;16.33;11.30;;;2.80;99.90;;;;;;5098858;28;20689;-68
2022/12/04 01:25:54;;;;;;;13.23;9.37;;;2.80;99.90;;;;;;5083118;28;20181;-67
2022/12/04 01:28:20;;;;;;;16.17;11.50;;;2.90;99.90;;;;;;5082016;28;20726;-68
2022/12/04 01:31:07;;;;;;;11.80;10.77;;;2.80;99.90;;;;;;5102694;28;20177;-67
2022/12/04 01:33:34;;;;;;;11.30;10.17;;;2.80;99.90;;;;;;5092515;28;20201;-67
2022/12/04 01:36:01;;;;;;;12.03;10.80;;;2.80;99.90;;;;;;5072152;28;20255;-67
2022/12/04 01:38:27;;;;;;;14.10;11.83;;;2.80;99.90;;;;;;5074692;28;20640;-67
2022/12/04 01:40:54;;;;;;;16.37;11.47;;;2.80;99.90;;;;;;5093887;28;20218;-67
2022/12/04 01:43:21;;;;;;;16.43;11.87;;;2.70;99.90;;;;;;5094321;28;20234;-67
2022/12/04 01:45:57;;;;;;;10.00;9.00;;;2.80;99.90;;;;;;5075306;28;20186;-67
2022/12/04 01:48:34;;;;;;;12.03;11.00;;;2.80;99.90;;;;;;5075869;28;20195;-67
2022/12/04 01:51:02;;;;;;;16.67;11.43;;;2.80;99.90;;;;;;5095493;28;20181;-68
2022/12/04 01:53:30;;;;;;;12.63;11.43;;;2.80;99.90;;;;;;5094295;28;20209;-67
2022/12/04 01:55:56;;;;;;;15.23;12.30;;;2.80;99.90;;;;;;5075363;28;20185;-67
2022/12/04 01:58:27;;;;;;;13.90;11.07;;;2.80;99.90;;;;;;5073742;28;20753;-67
2022/12/04 02:00:54;;;;;;;13.33;12.07;;;2.90;99.90;;;;;;5094943;28;20219;-67
2022/12/04 02:03:20;;;;;;;15.27;10.30;;;2.80;99.90;;;;;;5094656;28;20181;-67
2022/12/04 02:05:46;;;;;;;15.17;10.27;;;2.80;99.90;;;;;;5077398;28;20174;-66
2022/12/04 02:08:12;;;;;;;13.37;10.57;;;2.80;99.90;;;;;;5075324;28;20182;-67
2022/12/04 02:11:14;;;;;;;10.63;9.73;;;2.80;99.90;;;;;;5093196;28;20185;-68
2022/12/04 02:14:01;;;;;;;16.77;12.13;;;3.00;99.90;;;;;;5117690;22;20254;-69
2022/12/04 02:16:36;;;;;;;13.97;9.53;;;2.90;99.90;;;;;;5084290;28;20173;-68
2022/12/04 02:19:33;;;;;;;9.97;9.07;;;2.90;99.90;;;;;;5094331;28;20168;-69
2022/12/04 02:22:04;;;;;;;11.00;9.17;;;2.90;99.90;;;;;;5094535;28;20555;-69
2022/12/04 02:24:41;;;;;;;17.23;11.10;;;2.90;99.90;;;;;;5096050;28;20208;-68
2022/12/04 02:27:18;;;;;;;12.97;9.77;;;2.90;99.90;;;;;;5094560;28;20263;-68
2022/12/04 02:30:05;;;;;;;13.37;11.13;;;2.90;99.90;;;;;;5102853;28;20180;-68
2022/12/04 02:32:45;;;;;;;11.17;10.33;;;2.90;99.90;;;;;;5114876;28;20531;-66
2022/12/04 02:35:14;;;;;;;12.17;10.33;;;2.90;99.90;;;;;;5101930;28;20203;-66
2022/12/04 02:37:44;;;;;;;10.20;9.30;;;2.90;99.90;;;;;;5094462;28;20177;-66
2022/12/04 02:40:55;;;;;;;12.83;11.07;;;2.90;99.90;;;;;;5106925;28;20183;-69
2022/12/04 02:43:53;;;;;;;16.30;10.67;;;2.90;99.90;;;;;;5011871;28;20194;-68
2022/12/04 02:46:22;;;;;;;12.87;9.93;;;2.90;99.90;;;;;;5060625;28;20198;-69
2022/12/04 02:48:51;;;;;;;15.70;10.07;;;2.90;99.90;;;;;;5076250;28;20182;-69
2022/12/04 02:51:20;;;;;;;11.03;9.67;;;2.90;99.90;;;;;;5114493;28;20206;-69
2022/12/04 02:53:57;;;;;;;13.50;9.97;;;2.90;99.90;;;;;;5112885;28;20216;-68
2022/12/04 02:56:27;;;;;;;11.37;10.07;;;2.90;99.90;;;;;;5094206;28;20196;-68
2022/12/04 02:59:01;;;;;;;11.27;10.13;;;2.90;99.90;;;;;;5095207;28;20201;-69
2022/12/04 03:01:33;;;;;;;10.17;9.30;;;2.90;99.90;;;;;;5114107;28;20168;-66
2022/12/04 03:04:08;;;;;;;11.70;10.60;;;3.00;99.90;;;;;;5112200;28;20207;-69
2022/12/04 03:06:37;;;;;;;14.23;10.27;;;3.00;99.90;;;;;;5093985;28;20239;-69
2022/12/04 03:09:15;;;;;;;16.00;10.80;;;3.00;99.90;;;;;;5077917;28;20624;-67
2022/12/04 03:11:45;;;;;;;16.40;9.67;;;3.00;99.90;;;;;;5114207;28;20173;-67
2022/12/04 03:14:16;;;;;;;14.23;9.57;;;3.00;99.90;;;;;;5110354;28;20209;-67
2022/12/04 03:16:42;;;;;;;11.47;9.73;;;3.00;99.90;;;;;;5093592;28;20188;-67
2022/12/04 03:19:28;;;;;;;16.13;11.00;;;2.90;99.90;;;;;;5096102;28;20220;-66
2022/12/04 03:21:58;;;;;;;16.27;10.77;;;2.90;99.90;;;;;;5113885;28;20585;-67
2022/12/04 03:24:37;;;;;;;10.40;9.47;;;3.00;99.90;;;;;;5108716;28;20204;-67
2022/12/04 03:27:35;;;;;;;12.10;10.90;;;2.90;99.90;;;;;;5075110;28;20192;-66
2022/12/04 03:30:10;;;;;;;16.90;11.30;;;2.90;99.90;;;;;;5095895;28;20197;-67
2022/12/04 03:32:54;;;;;;;9.23;8.30;;;2.90;99.90;;;;;;5113641;28;20294;-67
2022/12/04 03:35:45;;;;;;;10.93;9.50;;;2.90;99.90;;;;;;5101034;28;20280;-67
2022/12/04 03:38:25;;;;;;;14.10;9.00;;;2.90;99.90;;;;;;5093401;28;20198;-67
2022/12/04 03:41:12;;;;;;;11.27;9.17;;;2.80;99.90;;;;;;5109844;28;20212;-67
2022/12/04 03:44:10;;;;;;;9.87;8.87;;;2.80;99.90;;;;;;5113516;28;20175;-66
2022/12/04 03:46:43;;;;;;;9.83;9.03;;;2.80;99.90;;;;;;5072946;28;20171;-67
2022/12/04 03:49:20;;;;;;;11.13;8.83;;;2.80;99.90;;;;;;5078003;28;20182;-67
2022/12/04 03:51:57;;;;;;;13.07;9.03;;;2.80;99.90;;;;;;5113257;28;20176;-67
2022/12/04 03:54:37;;;;;;;10.23;9.50;;;2.80;99.90;;;;;;5108839;28;20216;-66
2022/12/04 03:57:14;;;;;;;8.63;8.03;;;2.70;99.90;;;;;;5092815;28;20174;-67
2022/12/04 03:59:56;;;;;;;9.60;8.83;;;2.70;99.90;;;;;;5099188;28;20658;-66
2022/12/04 04:02:24;;;;;;;8.93;8.03;;;2.70;99.90;;;;;;5113271;28;20537;-67
2022/12/04 04:04:54;;;;;;;9.27;8.37;;;2.80;99.90;;;;;;5104680;28;20225;-67
2022/12/04 04:07:46;;;;;;;8.90;8.20;;;2.80;99.90;;;;;;5092613;28;20180;-66
2022/12/04 04:10:15;;;;;;;8.10;7.47;;;2.70;99.90;;;;;;5092213;28;20185;-67
2022/12/04 04:24:14;;;;;;;8.93;8.13;;;2.80;99.90;;;;;;5111943;28;20207;-67
2022/12/04 04:26:48;;;;;;;9.40;8.60;;;2.80;99.90;;;;;;5092212;28;20261;-67
2022/12/04 04:29:14;;;;;;;9.53;8.20;;;2.70;99.90;;;;;;5094032;28;20181;-66
2022/12/04 04:32:00;;;;;;;9.40;8.57;;;2.70;99.90;;;;;;5112499;28;20175;-66
2022/12/04 04:34:51;;;;;;;8.97;7.73;;;2.70;99.90;;;;;;5108666;28;20212;-67
2022/12/04 04:37:35;;;;;;;7.97;7.37;;;2.70;99.90;;;;;;5092276;28;20170;-67
2022/12/04 04:40:24;;;;;;;8.30;7.70;;;2.70;99.90;;;;;;5100444;28;20180;-67
2022/12/04 04:43:06;;;;;;;9.47;7.63;;;2.70;99.90;;;;;;5112229;28;20174;-67
2022/12/04 04:45:39;;;;;;;9.07;8.07;;;2.70;99.90;;;;;;5099485;28;20247;-66
2022/12/04 04:48:13;;;;;;;8.37;7.67;;;2.70;99.90;;;;;;5091939;28;20173;-66
2022/12/04 04:50:40;;;;;;;9.47;8.87;;;2.70;99.90;;;;;;5087186;28;20184;-67
2022/12/04 04:53:11;;;;;;;8.07;7.53;;;2.70;99.90;;;;;;5112066;28;20196;-67
2022/12/04 04:55:38;;;;;;;8.60;7.97;;;2.70;99.90;;;;;;5098844;28;20199;-67
2022/12/04 04:58:21;;;;;;;8.70;7.87;;;2.70;99.90;;;;;;5091727;28;20182;-66
2022/12/04 05:00:57;;;;;;;11.73;9.30;;;2.70;99.90;;;;;;5105936;28;20184;-67
2022/12/04 05:03:23;;;;;;;10.97;9.80;;;2.60;99.90;;;;;;5111972;28;20165;-67
2022/12/04 05:05:49;;;;;;;9.77;8.77;;;2.60;99.90;;;;;;5097143;28;20211;-67
2022/12/04 05:08:15;;;;;;;8.33;7.73;;;2.60;99.90;;;;;;5091666;28;20205;-67
2022/12/04 05:10:40;;;;;;;8.37;7.67;;;2.60;99.90;;;;;;5104825;28;20220;-67
2022/12/04 05:13:06;;;;;;;7.90;7.40;;;2.60;99.90;;;;;;5111715;28;20205;-67
2022/12/04 05:15:31;;;;;;;10.70;8.13;;;2.60;99.90;;;;;;5099686;28;20209;-67
2022/12/04 05:17:57;;;;;;;9.47;8.37;;;2.60;99.90;;;;;;5091170;28;20242;-67
2022/12/04 05:20:22;;;;;;;8.33;7.73;;;2.60;99.90;;;;;;5083972;28;20544;-67
2022/12/04 05:22:48;;;;;;;15.23;8.57;;;2.60;99.90;;;;;;5111766;28;20177;-67
2022/12/04 05:25:13;;;;;;;9.93;8.93;;;2.50;99.90;;;;;;5102315;28;20603;-67
2022/12/04 05:27:39;;;;;;;9.37;8.63;;;2.60;99.90;;;;;;5091487;28;20178;-66
2022/12/04 05:30:06;;;;;;;8.00;7.33;;;2.50;99.90;;;;;;5098688;28;20260;-67
2022/12/04 05:32:31;;;;;;;10.27;9.27;;;2.40;99.90;;;;;;5112060;28;20173;-67
2022/12/04 05:34:57;;;;;;;9.40;8.43;;;2.40;99.90;;;;;;5104657;28;20197;-67
2022/12/04 05:37:24;;;;;;;8.67;8.03;;;2.40;99.90;;;;;;5073329;28;20475;-67
2022/12/04 05:39:50;;;;;;;11.00;8.67;;;2.40;99.90;;;;;;5078701;28;20179;-67
2022/12/04 05:42:16;;;;;;;10.57;8.73;;;2.30;99.90;;;;;;5111845;28;20247;-67
2022/12/04 05:44:41;;;;;;;10.17;9.37;;;2.30;99.90;;;;;;5107206;28;20624;-67
2022/12/04 05:47:07;;;;;;;9.30;8.53;;;2.30;99.90;;;;;;5091252;28;20182;-67
2022/12/04 05:49:33;;;;;;;9.17;8.40;;;2.30;99.90;;;;;;5076016;28;20216;-67
2022/12/04 05:52:01;;;;;;;10.50;9.50;;;2.30;99.90;;;;;;5111578;28;20168;-67
2022/12/04 05:54:26;;;;;;;11.07;8.67;;;2.20;99.90;;;;;;5109436;28;20200;-67
2022/12/04 05:56:52;;;;;;;9.63;8.70;;;2.30;99.90;;;;;;5091029;28;20181;-67
2022/12/04 05:59:18;;;;;;;9.93;9.17;;;2.30;99.90;;;;;;5091903;28;20583;-67
2022/12/04 06:01:44;;;;;;;7.80;7.30;;;2.30;99.90;;;;;;5112000;28;20210;-67
2022/12/04 06:04:10;;;;;;;9.63;8.80;;;2.20;99.90;;;;;;5111470;28;20244;-67
2022/12/04 06:06:37;;;;;;;9.77;8.97;;;2.30;99.90;;;;;;5091517;28;20189;-67
2022/12/04 06:09:04;;;;;;;9.27;8.43;;;2.30;99.90;;;;;;5091150;28;20254;-67
2022/12/04 06:11:32;;;;;;;10.53;9.07;;;2.30;99.90;;;;;;5110041;28;20188;-67
2022/12/04 06:13:59;;;;;;;8.27;7.53;;;2.30;99.90;;;;;;5111238;28;20219;-67
2022/12/04 06:16:34;;;;;;;9.03;8.13;;;2.30;99.90;;;;;;5096991;28;20643;-67
2022/12/04 06:19:05;;;;;;;9.03;8.33;;;2.30;99.90;;;;;;5090995;28;20254;-67
2022/12/04 06:21:33;;;;;;;8.97;8.07;;;2.30;99.90;;;;;;5090976;28;20170;-67
2022/12/04 06:23:59;;;;;;;9.03;8.33;;;2.30;99.90;;;;;;5090935;28;20193;-67
2022/12/04 06:26:25;;;;;;;8.77;7.93;;;2.30;99.90;;;;;;5091207;28;20189;-67
2022/12/04 06:28:56;;;;;;;9.07;8.13;;;2.30;99.90;;;;;;5092592;28;20178;-67
2022/12/04 06:31:23;;;;;;;9.13;8.33;;;2.30;99.90;;;;;;5109301;28;20177;-67
2022/12/04 06:33:49;;;;;;;8.80;7.90;;;2.30;99.90;;;;;;5114644;28;20705;-67
2022/12/04 06:36:20;;;;;;;10.10;8.83;;;2.30;99.90;;;;;;5100064;28;20209;-67
2022/12/04 06:38:46;;;;;;;8.43;7.83;;;2.40;99.90;;;;;;5094461;28;20165;-67
2022/12/04 06:41:15;;;;;;;9.33;8.63;;;2.30;99.90;;;;;;5107364;28;20230;-67
2022/12/04 06:43:41;;;;;;;10.00;8.93;;;2.30;99.90;;;;;;5114757;28;20547;-67
2022/12/04 06:46:09;;;;;;;8.00;7.27;;;2.30;99.90;;;;;;5101154;28;20181;-67
2022/12/04 06:48:35;;;;;;;8.50;7.77;;;2.30;99.90;;;;;;5094507;28;20184;-67
2022/12/04 06:51:22;;;;;;;11.60;7.97;;;2.30;99.90;;;;;;5105354;28;20176;-67
2022/12/04 06:53:48;;;;;;;8.57;7.97;;;2.30;99.90;;;;;;5114401;28;20224;-67
2022/12/04 06:56:17;;;;;;;8.83;8.13;;;2.30;99.90;;;;;;5100309;28;20177;-67
2022/12/04 06:58:51;;;;;;;9.27;8.33;;;2.30;99.90;;;;;;5094226;28;20177;-67
2022/12/04 07:01:19;;;;;;;8.67;7.93;;;2.30;99.90;;;;;;5107143;28;20172;-67
2022/12/04 07:03:45;;;;;;;8.07;7.47;;;2.20;99.90;;;;;;5114277;28;20188;-67
2022/12/04 07:06:22;;;;;;;10.13;9.10;;;2.20;99.90;;;;;;5100870;28;20189;-67
2022/12/04 07:08:50;;;;;;;8.53;7.93;;;2.20;99.90;;;;;;5093987;28;20237;-67
2022/12/04 07:11:16;;;;;;;8.20;7.50;;;2.20;99.90;;;;;;5106496;28;20181;-66
2022/12/04 07:13:42;;;;;;;9.73;8.60;;;2.20;99.90;;;;;;5114012;28;20265;-67
2022/12/04 07:16:11;;;;;;;8.83;7.50;;;2.20;99.90;;;;;;5101407;28;20272;-66
2022/12/04 07:18:37;;;;;;;9.30;8.60;;;2.20;99.90;;;;;;5093885;28;20173;-67
2022/12/04 07:21:08;;;;;;;8.23;7.63;;;2.20;99.90;;;;;;5104206;28;20177;-67
2022/12/04 07:23:34;;;;;;;7.47;6.87;;;2.20;99.90;;;;;;5113954;28;20236;-67
2022/12/04 07:26:12;;;;;;;9.47;8.77;;;2.20;99.90;;;;;;5102353;28;20190;-67
2022/12/04 07:28:38;;;;;;;8.37;7.77;;;2.20;99.90;;;;;;5093528;28;20187;-67
2022/12/04 07:31:09;;;;;;;9.33;8.30;;;2.20;99.90;;;;;;5099622;28;20481;-67
2022/12/04 07:33:36;;;;;;;14.50;9.47;;;2.20;99.90;;;;;;5074561;28;20205;-67
2022/12/04 07:36:05;;;;;;;9.00;8.30;;;2.20;99.90;;;;;;5085591;28;20269;-67
2022/12/04 07:38:32;;;;;;;8.90;8.30;;;2.20;99.90;;;;;;5113220;28;20633;-68
2022/12/04 07:40:59;;;;;;;8.23;7.63;;;2.20;99.90;;;;;;5102623;28;20170;-67
2022/12/04 07:43:26;;;;;;;12.10;8.30;;;2.20;99.90;;;;;;5092910;28;20178;-67
2022/12/04 07:45:51;;;;;;;7.50;7.00;;;2.10;99.90;;;;;;5101961;28;20173;-67
2022/12/04 07:48:17;;;;;;;9.23;8.33;;;2.10;99.90;;;;;;5113538;28;20227;-67
2022/12/04 07:50:43;;;;;;;8.57;7.87;;;2.10;99.90;;;;;;5105254;28;20178;-68
2022/12/04 07:53:09;;;;;;;8.53;7.77;;;2.10;99.90;;;;;;5092649;28;20669;-67
2022/12/04 07:55:34;;;;;;;8.67;7.97;;;2.10;99.90;;;;;;5099049;28;20275;-69
2022/12/04 07:58:00;;;;;;;9.03;8.43;;;2.00;99.90;;;;;;5113341;28;20275;-68
2022/12/04 08:00:26;;;;;;;9.50;8.67;;;2.00;99.90;;;;;;5107689;28;20209;-68
2022/12/04 08:02:51;;;;;;;9.30;8.50;;;2.00;99.90;;;;;;5092646;28;20602;-67
2022/12/04 08:05:17;;;;;;;8.73;8.13;;;2.00;99.90;;;;;;5096120;28;20212;-68
2022/12/04 08:07:43;;;;;;;10.00;9.30;;;1.90;99.90;;;;;;5113026;28;20172;-68
2022/12/04 08:10:09;;;;;;;9.60;8.80;;;2.00;99.90;;;;;;5110134;28;20227;-68
2022/12/04 08:12:35;;;;;;;9.10;8.33;;;2.00;99.90;;;;;;5092637;28;20226;-68
2022/12/04 08:15:01;;;;;;;9.80;8.50;;;2.00;99.90;;;;;;5075549;28;20225;-68
2022/12/04 08:17:26;;;;;;;10.30;9.20;;;2.10;99.90;;;;;;5112840;28;20176;-67
2022/12/04 08:19:52;;;;;;;9.27;8.47;;;2.00;99.90;;;;;;5094130;28;20188;-68
2022/12/04 08:22:18;;;;;;;9.03;8.43;;;2.00;99.90;;;;;;5093986;28;20181;-69
2022/12/04 08:24:43;;;;;;;10.03;9.17;;;2.00;99.90;;;;;;5076622;28;20253;-68
2022/12/04 08:27:09;;;;;;;8.43;7.87;;;2.00;99.90;;;;;;5092322;28;20191;-67
2022/12/04 08:29:35;;;;;;;10.07;9.20;;;2.00;99.90;;;;;;5080524;28;20173;-68
2022/12/04 08:32:02;;;;;;;11.90;9.70;;;1.90;99.90;;;;;;5102624;28;20552;-68
2022/12/04 08:34:27;;;;;;;8.93;8.33;;;1.90;99.90;;;;;;5094514;28;20254;-68
2022/12/04 08:36:53;;;;;;;9.27;8.47;;;1.90;99.90;;;;;;5111650;28;20773;-68
2022/12/04 08:39:18;;;;;;;9.70;8.73;;;1.90;99.90;;;;;;5112113;28;20177;-67
2022/12/04 08:41:44;;;;;;;12.87;9.63;;;1.90;99.90;;;;;;5086025;28;20197;-68
2022/12/04 08:44:09;;;;;;;10.47;9.30;;;1.80;99.90;;;;;;5073705;28;20637;-67
2022/12/04 08:46:35;;;;;;;9.70;9.10;;;1.70;99.90;;;;;;5100593;28;20657;-67
2022/12/04 08:49:01;;;;;;;9.90;9.10;;;1.70;99.90;;;;;;5112097;28;20173;-68
2022/12/04 08:51:29;;;;;;;10.63;9.70;;;1.70;99.90;;;;;;5103275;28;20178;-68
2022/12/04 08:53:57;;;;;;;10.17;9.30;;;1.70;99.90;;;;;;5091695;28;20213;-68
2022/12/04 08:56:24;;;;;;;9.97;9.17;;;1.70;99.90;;;;;;5074040;28;20181;-67
2022/12/04 08:58:49;;;;;;;9.73;9.03;;;1.80;99.90;;;;;;5073537;28;20174;-68
2022/12/04 09:01:16;;;;;;;11.37;10.33;;;1.90;99.90;;;;;;5079077;28;20541;-68
2022/12/04 09:03:42;;;;;;;11.17;10.03;;;1.90;99.90;;;;;;5111932;28;20649;-68
2022/12/04 09:06:10;;;;;;;11.73;10.53;;;1.90;99.90;;;;;;5078262;28;20195;-68
2022/12/04 09:08:36;;;;;;;9.53;8.47;;;2.00;99.90;;;;;;5112186;28;20183;-68
2022/12/04 09:11:07;;;;;;;11.63;10.53;;;2.00;99.90;;;;;;5089296;28;20174;-69
2022/12/04 09:13:34;;;;;;;10.53;9.83;;;2.00;99.90;;;;;;5091331;28;20294;-68
2022/12/04 09:16:03;;;;;;;9.23;8.37;;;2.00;99.90;;;;;;5091374;28;20181;-68
2022/12/04 09:18:28;;;;;;;10.00;9.20;;;2.10;99.90;;;;;;5091750;28;20692;-67
2022/12/04 09:20:56;;;;;;;9.50;8.80;;;2.10;99.90;;;;;;5073314;28;20208;-68
2022/12/04 09:23:21;;;;;;;9.90;9.10;;;2.10;99.90;;;;;;5091403;28;20646;-68
2022/12/04 09:25:47;;;;;;;10.83;10.03;;;2.20;99.90;;;;;;5074273;28;20228;-68
2022/12/04 09:28:13;;;;;;;9.47;8.97;;;2.20;99.90;;;;;;5111818;28;20630;-67
2022/12/04 09:30:38;;;;;;;10.93;9.30;;;2.30;99.90;;;;;;5110976;28;20226;-67
2022/12/04 09:33:04;;;;;;;11.17;9.00;;;2.30;99.90;;;;;;5072941;28;20208;-67
2022/12/04 09:35:29;;;;;;;10.03;9.07;;;2.20;99.90;;;;;;5091178;28;20189;-68
2022/12/04 09:37:56;;;;;;;9.87;9.00;;;2.20;99.90;;;;;;5110051;28;20198;-67
2022/12/04 09:40:27;;;;;;;10.17;9.33;;;2.20;99.90;;;;;;5093601;28;20214;-67
2022/12/04 09:43:08;;;;;;;10.27;9.20;;;2.10;99.90;;;;;;5093069;28;20188;-67
2022/12/04 09:45:52;;;;;;;13.37;11.33;;;2.10;99.90;;;;;;5091044;28;20201;-67
2022/12/04 09:48:19;;;;;;;9.27;8.57;;;2.10;99.90;;;;;;5071249;28;20181;-67
2022/12/04 09:50:47;;;;;;;12.20;10.57;;;2.10;99.90;;;;;;5053889;28;20208;-68
2022/12/04 09:53:19;;;;;;;10.90;10.00;;;2.10;99.90;;;;;;5111446;28;20200;-68
2022/12/04 09:55:57;;;;;;;12.30;10.43;;;2.10;99.90;;;;;;5111261;28;20254;-68
2022/12/04 09:58:48;;;;;;;10.63;9.63;;;2.10;99.90;;;;;;5070967;28;20170;-68
2022/12/04 10:01:28;;;;;;;10.83;9.83;;;2.20;99.90;;;;;;5062724;28;20540;-68
2022/12/04 10:03:55;;;;;;;10.77;9.77;;;2.20;99.90;;;;;;5114776;28;20201;-68
2022/12/04 10:06:28;;;;;;;11.53;10.27;;;2.20;99.90;;;;;;5110618;28;20181;-68
2022/12/04 10:09:12;;;;;;;12.73;9.53;;;2.30;99.90;;;;;;5095015;28;20208;-68
2022/12/04 10:11:55;;;;;;;10.23;9.30;;;2.30;99.90;;;;;;5101114;28;20621;-68
2022/12/04 10:14:26;;;;;;;9.47;8.87;;;2.30;99.90;;;;;;5096650;28;20217;-68
2022/12/04 10:17:21;;;;;;;9.93;8.93;;;2.20;99.90;;;;;;5110558;28;20633;-69
2022/12/04 10:20:26;;;;;;;9.13;8.63;;;2.20;99.90;;;;;;5089362;28;20273;-68
2022/12/04 10:23:22;;;;;;;10.27;9.47;;;2.20;99.90;;;;;;5075479;28;20623;-69
2022/12/04 10:25:50;;;;;;;9.83;9.13;;;2.10;99.90;;;;;;5076171;28;20182;-67
2022/12/04 10:28:31;;;;;;;9.47;8.47;;;2.10;99.90;;;;;;5094790;28;20177;-68
2022/12/04 10:31:00;;;;;;;9.97;9.07;;;2.20;99.90;;;;;;5093592;28;20174;-68
2022/12/04 10:33:38;;;;;;;8.37;7.77;;;2.20;99.90;;;;;;5094293;28;20299;-68
2022/12/04 10:36:04;;;;;;;12.13;9.57;;;2.20;99.90;;;;;;5114813;28;20192;-68
2022/12/04 10:38:52;;;;;;;9.43;8.47;;;2.20;99.90;;;;;;5077786;28;20277;-67
2022/12/04 10:41:28;;;;;;;11.00;10.07;;;2.30;99.90;;;;;;5094443;28;20169;-68
2022/12/04 10:43:53;;;;;;;9.03;8.40;;;2.40;99.90;;;;;;5114444;28;20196;-67
2022/12/04 10:46:32;;;;;;;9.57;8.07;;;2.50;99.90;;;;;;5114387;28;20520;-67
2022/12/04 10:49:08;;;;;;;8.97;8.07;;;2.50;99.90;;;;;;5089151;28;20237;-68
2022/12/04 10:51:42;;;;;;;9.03;8.33;;;2.50;99.90;;;;;;5076076;28;20196;-67
2022/12/04 10:54:17;;;;;;;10.13;9.07;;;2.60;99.90;;;;;;5093835;28;20225;-68
2022/12/04 10:56:51;;;;;;;8.90;8.10;;;2.50;99.90;;;;;;5096032;28;20172;-68
2022/12/04 10:59:17;;;;;;;9.87;9.13;;;2.50;99.90;;;;;;5114170;28;20167;-68
2022/12/04 11:01:44;;;;;;;12.97;9.80;;;2.50;99.90;;;;;;5093483;28;20173;-67
2022/12/04 11:04:23;;;;;;;9.30;8.50;;;2.50;99.90;;;;;;5093819;28;20197;-67
2022/12/04 11:06:59;;;;;;;9.53;8.60;;;2.50;99.90;;;;;;5077784;28;20197;-68
2022/12/04 11:09:25;;;;;;;13.03;9.00;;;2.60;99.90;;;;;;5081531;28;20196;-68
2022/12/04 11:11:51;;;;;;;9.97;9.10;;;2.60;99.90;;;;;;5077164;28;20690;-67
2022/12/04 11:14:20;;;;;;;9.70;8.80;;;2.60;99.90;;;;;;5112927;28;20215;-67
2022/12/04 11:16:49;;;;;;;10.37;9.53;;;2.70;99.90;;;;;;5094646;28;20264;-68
2022/12/04 11:19:25;;;;;;;9.30;8.50;;;2.70;99.90;;;;;;5094790;28;20230;-67
2022/12/04 11:22:03;;;;;;;9.40;8.63;;;2.70;99.90;;;;;;5092642;28;20228;-68
2022/12/04 11:24:33;;;;;;;10.47;8.83;;;2.70;99.90;;;;;;5093321;28;20246;-68
2022/12/04 11:26:59;;;;;;;9.43;8.53;;;2.70;99.90;;;;;;5076910;28;20175;-67
2022/12/04 11:29:32;;;;;;;9.60;8.73;;;2.70;99.90;;;;;;5095192;28;20176;-68
2022/12/04 11:31:58;;;;;;;13.70;10.57;;;2.70;99.90;;;;;;5111564;28;20169;-68
2022/12/04 11:34:33;;;;;;;10.93;8.60;;;2.80;99.90;;;;;;5075052;28;20247;-67
2022/12/04 11:36:58;;;;;;;9.33;8.43;;;2.80;99.90;;;;;;5093571;28;20514;-67
2022/12/04 11:39:28;;;;;;;8.97;8.30;;;2.80;99.90;;;;;;5093497;28;20223;-68
2022/12/04 11:42:15;;;;;;;9.27;8.60;;;2.80;99.90;;;;;;5093139;28;20181;-68
2022/12/04 11:44:52;;;;;;;11.43;10.20;;;2.80;99.90;;;;;;5095261;28;20250;-68
2022/12/04 11:47:19;;;;;;;9.23;8.53;;;2.80;99.90;;;;;;5110248;28;20177;-68
2022/12/04 11:50:21;;;;;;;9.20;8.43;;;2.80;99.90;;;;;;5074320;28;20178;-68
2022/12/04 11:52:59;;;;;;;9.63;8.83;;;2.90;99.90;;;;;;5076163;28;20177;-68
2022/12/04 11:55:52;;;;;;;12.60;9.83;;;3.00;99.90;;;;;;5074484;28;20200;-68
2022/12/04 11:58:26;;;;;;;9.37;8.57;;;3.00;99.90;;;;;;5083396;28;20177;-68
2022/12/04 12:01:09;;;;;;;10.80;9.87;;;3.00;99.90;;;;;;5112708;28;20200;-68
2022/12/04 12:04:12;;;;;;;10.07;9.00;;;3.00;99.90;;;;;;5081435;28;20654;-68
2022/12/04 12:06:51;;;;;;;12.07;8.90;;;3.10;99.90;;;;;;5092604;28;20695;-67
2022/12/04 12:09:21;;;;;;;14.33;11.33;;;3.00;99.90;;;;;;5110281;28;20176;-68
2022/12/04 12:12:00;;;;;;;9.17;8.43;;;2.90;99.90;;;;;;5094485;28;20548;-68
2022/12/04 12:14:47;;;;;;;11.80;10.60;;;2.90;99.90;;;;;;5093835;28;20208;-68
2022/12/04 12:17:27;;;;;;;11.47;10.43;;;2.90;99.90;;;;;;5092388;28;20692;-68
2022/12/04 12:19:59;;;;;;;10.60;9.77;;;3.00;99.90;;;;;;5071714;28;20177;-68
2022/12/04 12:22:56;;;;;;;9.53;8.70;;;2.90;99.90;;;;;;5074884;28;20747;-68
2022/12/04 12:25:30;;;;;;;11.80;9.57;;;3.00;99.90;;;;;;5094395;28;20197;-68
2022/12/04 12:28:15;;;;;;;12.97;8.93;;;3.00;99.90;;;;;;5103698;28;20641;-68
2022/12/04 12:30:56;;;;;;;9.67;8.83;;;3.00;99.90;;;;;;5077779;28;20175;-68
2022/12/04 12:33:27;;;;;;;9.40;8.67;;;3.00;99.90;;;;;;5073769;28;20666;-68
2022/12/04 12:36:10;;;;;;;11.10;10.13;;;3.90;99.90;;;;;;5108843;28;20180;-68
2022/12/04 12:38:38;;;;;;;13.57;11.53;;;3.10;99.90;;;;;;5112393;28;20198;-67
2022/12/04 12:41:14;;;;;;;13.13;9.80;;;3.10;99.90;;;;;;5093825;28;20265;-68
2022/12/04 12:43:43;;;;;;;11.63;10.50;;;3.20;99.90;;;;;;5073767;28;20181;-68
2022/12/04 12:46:12;;;;;;;11.23;10.43;;;3.30;99.90;;;;;;5108121;28;20188;-68
2022/12/04 12:48:59;;;;;;;18.17;10.90;;;3.30;99.90;;;;;;5094912;28;20184;-68
2022/12/04 12:51:44;;;;;;;11.07;10.03;;;3.30;99.90;;;;;;5071369;28;20232;-68
2022/12/04 12:54:28;;;;;;;10.27;9.37;;;3.20;99.90;;;;;;5053485;28;20296;-68
2022/12/04 12:57:04;;;;;;;9.30;8.70;;;3.20;55.90;;;;;;5071099;28;20205;-68
2022/12/04 12:59:31;;;;;;;9.43;8.53;;;3.10;58.80;;;;;;5084107;28;20169;-67
2022/12/04 13:02:02;;;;;;;9.53;8.60;;;3.10;69.50;;;;;;5052381;28;20186;-68
2022/12/04 13:04:41;;;;;;;10.20;9.23;;;3.00;88.30;;;;;;5071477;28;20694;-67
2022/12/04 13:07:43;;;;;;;10.13;9.20;;;3.00;93.90;;;;;;5071620;28;20180;-68
2022/12/04 13:10:17;;;;;;;12.97;9.50;;;3.00;95.00;;;;;;5070998;28;20197;-68
2022/12/04 13:12:55;;;;;;;10.30;9.37;;;3.00;90.50;;;;;;5071402;28;20177;-68
2022/12/04 13:15:31;;;;;;;10.23;9.23;;;3.00;87.10;;;;;;5071238;28;20217;-68
2022/12/04 13:17:57;;;;;;;9.57;8.60;;;3.00;93.50;;;;;;5071239;28;20257;-68
2022/12/04 13:20:32;;;;;;;10.20;9.13;;;3.00;91.70;;;;;;5071301;28;20505;-67
2022/12/04 13:23:36;;;;;;;9.53;8.73;;;2.70;97.50;;;;;;5071222;28;20646;-68